Time;durP1;ratioP1;P1;durP2;ratioP2;P2;SDS_P1;SDS_P2;PMS_P1;PMS_P2;Temp;Humidity;BMP_temperature;BMP_pressure;BME280_temperature;BME280_humidity;BME280_pressure;Samples;Min_cycle;Max_cycle;Signal;HPM_P1;HPM_P2
2023/03/05 00:00:23;;;;;;;16.40;4.90;;;4.50;1.00;;;;;;6128389;23;20282;-77
2023/03/05 00:02:50;;;;;;;9.75;4.40;;;4.40;1.00;;;;;;6156632;23;20238;-74
2023/03/05 00:05:17;;;;;;;18.65;6.97;;;4.30;1.00;;;;;;6158714;23;20345;-75
2023/03/05 00:07:45;;;;;;;15.57;4.75;;;4.30;1.00;;;;;;6158543;23;20297;-76
2023/03/05 00:10:12;;;;;;;16.45;5.57;;;4.20;1.00;;;;;;6159636;23;20219;-76
2023/03/05 00:12:39;;;;;;;20.33;6.03;;;4.20;1.00;;;;;;6161315;23;20268;-76
2023/03/05 00:15:09;;;;;;;12.95;6.80;;;4.20;1.00;;;;;;6158685;23;20218;-74
2023/03/05 00:17:36;;;;;;;17.00;6.50;;;4.10;1.00;;;;;;6159476;23;21109;-77
2023/03/05 00:20:04;;;;;;;18.77;7.00;;;4.00;1.00;;;;;;6157107;23;20226;-76
2023/03/05 00:22:31;;;;;;;15.27;6.55;;;4.00;1.00;;;;;;6159905;23;20274;-75
2023/03/05 00:24:58;;;;;;;15.60;6.90;;;3.90;1.00;;;;;;6159682;23;20215;-78
2023/03/05 00:27:25;;;;;;;15.23;5.70;;;3.80;1.00;;;;;;6160540;23;20215;-76
2023/03/05 00:29:52;;;;;;;19.30;6.72;;;3.70;1.00;;;;;;6156668;23;20219;-76
2023/03/05 00:32:21;;;;;;;19.40;7.40;;;3.60;1.00;;;;;;6150262;23;20226;-75
2023/03/05 00:34:48;;;;;;;16.27;4.93;;;3.60;1.00;;;;;;6157077;23;20285;-76
2023/03/05 00:37:17;;;;;;;17.15;4.35;;;3.50;1.00;;;;;;6156857;23;20245;-75
2023/03/05 00:39:43;;;;;;;16.98;5.65;;;3.40;1.00;;;;;;6155765;23;20242;-75
2023/03/05 00:42:10;;;;;;;19.27;5.10;;;3.40;1.00;;;;;;6158599;23;20221;-76
2023/03/05 00:44:37;;;;;;;20.02;5.10;;;3.30;1.00;;;;;;6157083;23;20214;-75
2023/03/05 00:47:04;;;;;;;23.17;5.38;;;3.30;1.00;;;;;;6138234;23;20222;-76
2023/03/05 00:49:33;;;;;;;15.38;4.50;;;3.30;1.00;;;;;;6135969;23;20215;-77
2023/03/05 00:52:00;;;;;;;16.55;4.85;;;3.30;1.00;;;;;;6152230;23;20222;-77
2023/03/05 00:54:30;;;;;;;15.48;4.47;;;3.30;1.00;;;;;;6154374;23;20239;-76
2023/03/05 00:56:57;;;;;;;14.38;4.40;;;3.30;1.00;;;;;;6155079;23;21227;-75
2023/03/05 00:59:24;;;;;;;13.13;3.97;;;3.30;1.00;;;;;;6152682;23;20215;-74
2023/03/05 01:01:51;;;;;;;16.27;4.40;;;3.10;1.00;;;;;;6158049;23;20238;-75
2023/03/05 01:04:23;;;;;;;18.42;4.97;;;3.10;1.00;;;;;;6156210;23;20241;-77
2023/03/05 01:06:52;;;;;;;12.90;4.57;;;3.10;1.00;;;;;;6124262;23;20211;-75
2023/03/05 01:09:20;;;;;;;17.95;5.18;;;3.10;1.00;;;;;;6125395;23;20243;-75
2023/03/05 01:11:48;;;;;;;12.50;3.53;;;3.00;1.00;;;;;;6142118;23;20232;-76
2023/03/05 01:14:15;;;;;;;14.82;4.15;;;3.00;1.00;;;;;;6157047;23;20302;-76
2023/03/05 01:16:42;;;;;;;11.77;4.07;;;3.10;1.00;;;;;;6154408;23;20286;-76
2023/03/05 01:19:09;;;;;;;12.35;4.00;;;3.10;1.00;;;;;;6158881;23;20219;-75
2023/03/05 01:21:37;;;;;;;14.30;3.88;;;3.00;1.00;;;;;;6157559;23;20681;-76
2023/03/05 01:24:06;;;;;;;20.33;4.72;;;3.00;1.00;;;;;;6156025;23;20697;-76
2023/03/05 01:26:34;;;;;;;17.38;4.00;;;3.00;1.00;;;;;;6153833;23;20310;-76
2023/03/05 01:29:01;;;;;;;16.75;3.88;;;3.00;1.00;;;;;;6154704;23;20253;-76
2023/03/05 01:31:28;;;;;;;16.92;3.80;;;3.00;1.00;;;;;;6157440;23;20946;-75
2023/03/05 01:33:56;;;;;;;11.10;2.92;;;3.00;1.00;;;;;;6155677;23;20215;-76
2023/03/05 01:36:23;;;;;;;10.10;3.00;;;3.00;1.00;;;;;;6129785;23;20224;-76
2023/03/05 01:38:51;;;;;;;14.20;4.07;;;3.10;1.00;;;;;;6138241;23;20230;-76
2023/03/05 01:41:20;;;;;;;11.55;3.13;;;3.00;1.00;;;;;;6158031;23;20614;-75
2023/03/05 01:43:48;;;;;;;13.75;2.75;;;3.10;1.00;;;;;;6155093;23;20281;-76
2023/03/05 01:46:28;;;;;;;13.70;2.80;;;3.10;1.00;;;;;;6155245;23;20219;-75
2023/03/05 01:49:02;;;;;;;13.43;2.65;;;3.10;1.00;;;;;;6156467;23;20222;-76
2023/03/05 01:51:32;;;;;;;13.23;3.03;;;3.10;1.00;;;;;;6157555;23;20215;-74
2023/03/05 01:54:00;;;;;;;11.82;3.63;;;3.20;1.00;;;;;;6157473;23;20242;-75
2023/03/05 01:56:30;;;;;;;10.10;2.40;;;3.20;1.00;;;;;;6158073;23;20274;-76
2023/03/05 01:59:02;;;;;;;12.77;3.10;;;3.20;1.00;;;;;;6156836;23;20250;-76
2023/03/05 02:01:34;;;;;;;11.02;3.08;;;3.20;1.00;;;;;;6158757;23;20221;-75
2023/03/05 02:04:02;;;;;;;10.75;2.80;;;3.20;1.00;;;;;;6124743;23;20247;-75
2023/03/05 02:06:29;;;;;;;14.02;3.35;;;3.30;1.00;;;;;;6146311;23;20751;-77
2023/03/05 02:08:57;;;;;;;12.27;2.45;;;3.20;1.00;;;;;;6157023;23;20949;-75
2023/03/05 02:11:24;;;;;;;11.15;2.70;;;3.20;1.00;;;;;;6159646;23;20285;-79
2023/03/05 02:13:53;;;;;;;10.02;2.95;;;3.20;1.00;;;;;;6154371;23;20561;-76
2023/03/05 02:16:19;;;;;;;14.13;2.03;;;3.10;1.00;;;;;;6159742;23;20219;-75
2023/03/05 02:18:46;;;;;;;12.90;2.70;;;3.10;1.00;;;;;;6158231;23;20215;-76
2023/03/05 02:21:26;;;;;;;9.60;2.00;;;3.10;1.00;;;;;;6157900;23;20214;-75
2023/03/05 02:23:53;;;;;;;9.43;2.80;;;3.00;1.00;;;;;;6157056;23;20821;-76
2023/03/05 02:26:20;;;;;;;8.00;1.90;;;3.00;1.00;;;;;;6160505;23;20692;-76
2023/03/05 02:28:52;;;;;;;12.45;2.50;;;3.00;1.00;;;;;;6155726;23;20223;-75
2023/03/05 02:31:21;;;;;;;10.05;2.03;;;2.90;1.00;;;;;;6157650;23;20215;-75
2023/03/05 02:33:50;;;;;;;9.88;2.45;;;3.00;1.00;;;;;;6155796;23;20293;-75
2023/03/05 02:36:18;;;;;;;9.18;2.15;;;2.90;1.00;;;;;;6158065;23;20774;-75
2023/03/05 02:38:45;;;;;;;10.15;2.10;;;2.90;1.00;;;;;;6156846;23;20215;-75
2023/03/05 02:41:13;;;;;;;8.88;2.10;;;2.90;1.00;;;;;;6155142;23;20218;-76
2023/03/05 02:43:42;;;;;;;7.50;2.00;;;2.90;1.00;;;;;;6151529;23;20751;-74
2023/03/05 02:46:09;;;;;;;9.55;2.13;;;2.90;1.00;;;;;;6153656;23;20215;-75
2023/03/05 02:48:36;;;;;;;10.23;1.75;;;2.90;1.00;;;;;;6155529;23;20223;-75
2023/03/05 02:51:06;;;;;;;9.70;2.10;;;2.90;1.00;;;;;;6154184;23;20707;-75
2023/03/05 02:53:34;;;;;;;7.85;2.38;;;2.90;1.00;;;;;;6151868;23;20266;-76
2023/03/05 02:56:01;;;;;;;9.45;2.55;;;2.90;1.00;;;;;;6154106;23;20650;-76
2023/03/05 02:58:28;;;;;;;8.75;1.90;;;2.80;1.00;;;;;;6154843;23;21002;-75
2023/03/05 03:00:55;;;;;;;9.18;1.80;;;2.80;1.00;;;;;;6153339;23;21497;-76
2023/03/05 03:03:22;;;;;;;9.30;1.85;;;2.80;1.00;;;;;;6154635;23;20818;-77
2023/03/05 03:05:49;;;;;;;11.38;2.35;;;2.90;1.00;;;;;;6155087;23;20294;-74
2023/03/05 03:08:16;;;;;;;7.20;2.50;;;2.90;1.00;;;;;;6154593;23;20931;-77
2023/03/05 03:10:44;;;;;;;9.13;2.03;;;2.90;1.00;;;;;;6154381;23;20238;-76
2023/03/05 03:13:11;;;;;;;10.20;1.85;;;2.90;1.00;;;;;;6154700;23;20262;-76
2023/03/05 03:15:39;;;;;;;8.23;2.28;;;2.90;1.00;;;;;;6152074;23;20653;-75
2023/03/05 03:18:06;;;;;;;8.18;2.00;;;2.90;1.00;;;;;;6155338;23;20225;-76
2023/03/05 03:20:37;;;;;;;9.25;2.03;;;2.90;1.00;;;;;;6157618;23;20347;-74
2023/03/05 03:23:05;;;;;;;8.15;2.30;;;2.90;1.00;;;;;;6159298;23;20214;-76
2023/03/05 03:25:32;;;;;;;9.48;2.30;;;2.90;1.00;;;;;;6157691;23;20844;-77
2023/03/05 03:28:01;;;;;;;8.98;2.20;;;2.90;1.00;;;;;;6153897;23;22203;-76
2023/03/05 03:30:28;;;;;;;9.55;2.95;;;2.90;1.00;;;;;;6154451;23;20688;-76
2023/03/05 03:32:55;;;;;;;9.82;2.50;;;2.90;1.00;;;;;;6155393;23;20219;-76
2023/03/05 03:35:22;;;;;;;7.35;2.03;;;2.90;1.00;;;;;;6155315;23;20286;-76
2023/03/05 03:37:49;;;;;;;12.40;2.58;;;2.90;1.00;;;;;;6155769;23;20273;-76
2023/03/05 03:40:17;;;;;;;8.82;2.55;;;2.90;1.00;;;;;;6110451;23;1153866;-75
2023/03/05 03:42:44;;;;;;;11.40;2.50;;;2.90;1.00;;;;;;6157456;23;20707;-75
2023/03/05 03:45:13;;;;;;;9.63;1.90;;;2.90;1.00;;;;;;6158787;23;20592;-76
2023/03/05 03:47:40;;;;;;;7.95;1.63;;;2.90;1.00;;;;;;6156765;23;20230;-76
2023/03/05 03:50:11;;;;;;;7.53;1.92;;;2.80;1.00;;;;;;6115223;23;20261;-75
2023/03/05 03:52:38;;;;;;;7.78;1.83;;;2.80;1.00;;;;;;6159574;23;20214;-76
2023/03/05 03:55:06;;;;;;;7.95;2.20;;;2.80;1.00;;;;;;6159445;23;20207;-75
2023/03/05 03:57:33;;;;;;;9.20;1.90;;;2.90;1.00;;;;;;6159465;23;20222;-75
2023/03/05 04:00:00;;;;;;;10.07;2.60;;;2.90;1.00;;;;;;6159064;23;20233;-78
2023/03/05 04:02:29;;;;;;;6.53;1.60;;;2.90;1.00;;;;;;6157286;23;20286;-76
2023/03/05 04:04:56;;;;;;;11.05;2.15;;;2.90;1.00;;;;;;6158650;23;20214;-75
2023/03/05 04:07:23;;;;;;;6.60;1.88;;;2.90;1.00;;;;;;6158596;23;20800;-77
2023/03/05 04:09:50;;;;;;;9.60;2.22;;;2.80;1.00;;;;;;6157803;23;20269;-76
2023/03/05 04:12:17;;;;;;;8.90;2.10;;;2.80;1.00;;;;;;6158901;23;20364;-76
2023/03/05 04:14:45;;;;;;;8.10;2.20;;;2.70;1.00;;;;;;6159153;23;20218;-76
2023/03/05 04:17:13;;;;;;;8.30;1.73;;;2.70;1.00;;;;;;6158912;23;20219;-75
2023/03/05 04:19:41;;;;;;;12.25;1.95;;;2.60;1.00;;;;;;6157665;23;20237;-75
2023/03/05 04:22:11;;;;;;;11.60;2.28;;;2.60;1.00;;;;;;6158974;23;20908;-75
2023/03/05 04:24:38;;;;;;;8.90;1.77;;;2.50;1.00;;;;;;6159717;23;20215;-75
2023/03/05 04:27:05;;;;;;;10.35;2.60;;;2.50;1.00;;;;;;6158310;23;20302;-76
2023/03/05 04:29:33;;;;;;;9.82;2.33;;;2.40;1.00;;;;;;6159092;23;20962;-76
2023/03/05 04:32:00;;;;;;;11.27;2.65;;;2.40;1.00;;;;;;6158663;23;20219;-75
2023/03/05 04:34:27;;;;;;;9.15;2.10;;;2.30;1.00;;;;;;6157517;23;20301;-75
2023/03/05 04:36:55;;;;;;;11.20;1.98;;;2.30;1.00;;;;;;6157784;23;20243;-76
2023/03/05 04:39:22;;;;;;;10.27;2.40;;;2.30;1.00;;;;;;6158593;23;20237;-77
2023/03/05 04:41:50;;;;;;;6.80;1.77;;;2.30;1.00;;;;;;6157240;23;20219;-76
2023/03/05 04:44:22;;;;;;;10.50;2.13;;;2.20;1.00;;;;;;6159139;23;20263;-75
2023/03/05 04:46:49;;;;;;;10.90;2.13;;;2.20;1.00;;;;;;6157039;23;20978;-75
2023/03/05 04:49:16;;;;;;;10.82;2.10;;;2.10;1.00;;;;;;6158945;23;20625;-75
2023/03/05 04:51:43;;;;;;;8.70;1.88;;;2.10;1.00;;;;;;6157129;23;20293;-78
2023/03/05 04:54:11;;;;;;;9.18;2.30;;;2.10;1.00;;;;;;6158770;23;20302;-75
2023/03/05 04:56:38;;;;;;;12.05;2.22;;;2.10;1.00;;;;;;6157759;23;20234;-75
2023/03/05 04:59:05;;;;;;;10.75;2.30;;;2.10;1.00;;;;;;6156626;23;20211;-75
2023/03/05 05:01:34;;;;;;;9.45;1.95;;;2.10;1.00;;;;;;6157910;23;20236;-75
2023/03/05 05:04:01;;;;;;;10.40;1.80;;;2.10;1.00;;;;;;6155126;23;20697;-76
2023/03/05 05:06:28;;;;;;;9.63;3.20;;;2.10;1.00;;;;;;6157663;23;20218;-76
2023/03/05 05:08:55;;;;;;;7.85;1.90;;;2.10;1.00;;;;;;6159580;23;20266;-76
2023/03/05 05:11:23;;;;;;;14.15;2.60;;;2.10;1.00;;;;;;6157873;23;20219;-76
2023/03/05 05:13:50;;;;;;;6.97;1.60;;;2.10;1.00;;;;;;6156047;23;20249;-75
2023/03/05 05:16:17;;;;;;;7.65;1.90;;;2.10;1.00;;;;;;6158611;23;20219;-75
2023/03/05 05:18:44;;;;;;;9.80;2.38;;;2.00;1.00;;;;;;6155255;23;20282;-75
2023/03/05 05:21:13;;;;;;;13.50;2.50;;;2.00;1.00;;;;;;6156509;23;20311;-75
2023/03/05 05:23:40;;;;;;;7.50;2.25;;;2.00;1.00;;;;;;6156927;23;21627;-74
2023/03/05 05:26:08;;;;;;;10.38;2.20;;;1.90;1.00;;;;;;6159877;23;20917;-76
2023/03/05 05:28:37;;;;;;;10.82;2.35;;;1.90;1.00;;;;;;6158430;23;20211;-76
2023/03/05 05:31:07;;;;;;;11.20;2.50;;;1.90;1.00;;;;;;6157277;23;20691;-73
2023/03/05 05:33:34;;;;;;;11.20;3.30;;;1.90;1.00;;;;;;6156657;23;20215;-74
2023/03/05 05:36:03;;;;;;;15.43;2.97;;;1.80;1.00;;;;;;6153058;23;20218;-76
2023/03/05 05:38:30;;;;;;;8.85;2.58;;;1.80;1.00;;;;;;6156539;23;20215;-76
2023/03/05 05:41:03;;;;;;;9.40;2.17;;;1.90;1.00;;;;;;6156883;23;20222;-75
2023/03/05 05:43:30;;;;;;;6.60;1.60;;;1.80;1.00;;;;;;6158060;23;20214;-76
2023/03/05 05:46:01;;;;;;;8.73;2.03;;;1.90;1.00;;;;;;6156997;23;20306;-74
2023/03/05 05:48:29;;;;;;;8.93;2.10;;;1.90;1.00;;;;;;6132763;23;20294;-75
2023/03/05 05:50:56;;;;;;;9.88;2.20;;;1.80;1.00;;;;;;6156034;23;20242;-75
2023/03/05 05:53:23;;;;;;;11.93;1.92;;;1.80;1.00;;;;;;6157581;23;20238;-77
2023/03/05 05:55:50;;;;;;;12.93;2.72;;;1.90;1.00;;;;;;6155229;23;20223;-75
2023/03/05 05:58:18;;;;;;;9.48;1.80;;;1.90;1.00;;;;;;6157281;23;20221;-75
2023/03/05 06:00:45;;;;;;;8.68;2.10;;;1.90;1.00;;;;;;6155676;23;20301;-75
2023/03/05 06:03:13;;;;;;;11.00;1.95;;;1.90;1.00;;;;;;6156154;23;20250;-75
2023/03/05 06:05:41;;;;;;;13.80;1.88;;;2.00;1.00;;;;;;6146210;23;20613;-75
2023/03/05 06:08:08;;;;;;;9.73;2.63;;;2.00;1.00;;;;;;6152515;23;20270;-76
2023/03/05 06:10:35;;;;;;;7.47;1.60;;;2.10;1.00;;;;;;6156926;23;20736;-74
2023/03/05 06:13:02;;;;;;;9.13;2.05;;;2.20;1.00;;;;;;6156273;23;20215;-76
2023/03/05 06:15:29;;;;;;;10.82;1.90;;;2.20;1.00;;;;;;6158148;23;20223;-75
2023/03/05 06:17:58;;;;;;;9.48;2.13;;;2.20;1.00;;;;;;6156844;23;20242;-75
2023/03/05 06:20:27;;;;;;;10.75;1.90;;;2.20;1.00;;;;;;6158268;23;20274;-76
2023/03/05 06:22:54;;;;;;;10.73;2.15;;;2.30;1.00;;;;;;6115570;23;20310;-75
2023/03/05 06:25:20;;;;;;;10.43;2.30;;;2.30;1.00;;;;;;6158618;23;20219;-75
2023/03/05 06:27:47;;;;;;;8.65;2.60;;;2.30;1.00;;;;;;6154685;23;21015;-75
2023/03/05 06:30:15;;;;;;;9.82;2.50;;;2.40;1.00;;;;;;6154870;23;21198;-75
2023/03/05 06:32:41;;;;;;;8.98;2.17;;;2.40;1.00;;;;;;6156425;23;20226;-75
2023/03/05 06:35:09;;;;;;;9.02;2.17;;;2.40;1.00;;;;;;6151782;23;20219;-74
2023/03/05 06:37:37;;;;;;;13.13;2.50;;;2.50;1.00;;;;;;6155975;23;21117;-75
2023/03/05 06:40:05;;;;;;;8.85;2.15;;;2.60;1.00;;;;;;6154450;23;20976;-75
2023/03/05 06:42:35;;;;;;;10.43;2.70;;;2.60;1.00;;;;;;6154088;23;20207;-76
2023/03/05 06:45:02;;;;;;;7.72;2.15;;;2.60;1.00;;;;;;6153139;23;20219;-75
2023/03/05 06:47:29;;;;;;;10.40;2.20;;;2.70;1.00;;;;;;6155377;23;20211;-75
2023/03/05 06:49:56;;;;;;;7.43;1.80;;;2.90;1.00;;;;;;6153509;23;20215;-75
2023/03/05 06:52:23;;;;;;;10.38;2.50;;;3.00;1.00;;;;;;6159040;23;21018;-76
2023/03/05 06:54:54;;;;;;;6.80;1.77;;;3.10;1.00;;;;;;6159840;23;20222;-76
2023/03/05 06:57:22;;;;;;;8.90;2.20;;;3.10;1.00;;;;;;6158859;23;20646;-75
2023/03/05 06:59:52;;;;;;;7.90;2.00;;;3.20;1.00;;;;;;6156103;23;20488;-77
2023/03/05 07:02:19;;;;;;;8.48;2.50;;;3.10;1.00;;;;;;6150425;23;20230;-77
2023/03/05 07:04:46;;;;;;;13.27;2.70;;;3.20;1.00;;;;;;6150130;23;20225;-75
2023/03/05 07:07:13;;;;;;;10.93;2.35;;;3.20;1.00;;;;;;6150297;23;20235;-75
2023/03/05 07:09:42;;;;;;;10.55;2.97;;;3.10;1.00;;;;;;6154348;23;20210;-74
2023/03/05 07:12:11;;;;;;;9.10;2.10;;;3.20;1.00;;;;;;6157936;23;20298;-75
2023/03/05 07:14:39;;;;;;;8.57;2.35;;;3.20;1.00;;;;;;6154749;23;20211;-76
2023/03/05 07:17:07;;;;;;;8.93;2.28;;;3.30;1.00;;;;;;6156036;23;20238;-75
2023/03/05 07:19:34;;;;;;;8.52;2.28;;;3.50;1.00;;;;;;6155599;23;20238;-75
2023/03/05 07:22:01;;;;;;;9.15;2.28;;;3.70;1.00;;;;;;6155901;23;20250;-75
2023/03/05 07:24:29;;;;;;;7.85;2.25;;;3.70;1.00;;;;;;6155585;23;20254;-78
2023/03/05 07:26:56;;;;;;;7.53;2.20;;;3.80;1.00;;;;;;6155468;23;20242;-76
2023/03/05 07:29:28;;;;;;;10.32;2.00;;;3.80;1.00;;;;;;6155662;23;20211;-76
2023/03/05 07:31:58;;;;;;;7.53;1.67;;;3.70;1.00;;;;;;6155927;23;20230;-76
2023/03/05 07:34:25;;;;;;;7.50;2.40;;;3.70;1.00;;;;;;6156687;23;20230;-76
2023/03/05 07:36:57;;;;;;;11.93;2.17;;;3.60;1.00;;;;;;6126355;23;20290;-74
2023/03/05 07:39:24;;;;;;;9.95;2.20;;;3.60;1.00;;;;;;6147878;23;20218;-77
2023/03/05 07:41:51;;;;;;;9.02;2.63;;;3.60;1.00;;;;;;6160854;23;20222;-75
2023/03/05 07:44:19;;;;;;;9.02;1.83;;;3.60;1.00;;;;;;6152263;23;20930;-76
2023/03/05 07:46:47;;;;;;;9.60;2.15;;;3.50;1.00;;;;;;6157641;23;20242;-75
2023/03/05 07:49:14;;;;;;;7.95;1.63;;;3.60;1.00;;;;;;6158300;23;20215;-77
2023/03/05 07:51:42;;;;;;;7.65;2.03;;;3.60;1.00;;;;;;6154490;23;20215;-75
2023/03/05 07:54:12;;;;;;;9.10;2.30;;;3.60;1.00;;;;;;6155761;23;20262;-76
2023/03/05 07:56:39;;;;;;;8.15;1.77;;;3.70;1.00;;;;;;6157758;23;21017;-75
2023/03/05 07:59:11;;;;;;;10.57;2.53;;;3.60;1.00;;;;;;6158281;23;20685;-78
2023/03/05 08:01:38;;;;;;;9.65;2.30;;;3.60;1.00;;;;;;6154550;23;20266;-77
2023/03/05 08:04:09;;;;;;;12.00;2.05;;;3.60;1.00;;;;;;6159620;23;20269;-75
2023/03/05 08:06:39;;;;;;;9.02;1.50;;;3.70;1.00;;;;;;6161133;23;20274;-74
2023/03/05 08:09:07;;;;;;;10.45;2.10;;;3.70;1.00;;;;;;6159694;23;20246;-76
2023/03/05 08:11:42;;;;;;;7.40;1.83;;;3.80;1.00;;;;;;6161411;23;20214;-75
2023/03/05 08:14:09;;;;;;;8.13;2.03;;;3.70;1.00;;;;;;6161135;23;20265;-74
2023/03/05 08:16:36;;;;;;;7.43;1.98;;;3.70;1.00;;;;;;6160893;23;20270;-77
2023/03/05 08:19:03;;;;;;;9.15;2.42;;;3.80;1.00;;;;;;6117474;23;20257;-76
2023/03/05 08:21:33;;;;;;;11.98;2.45;;;4.00;1.00;;;;;;6153897;23;20218;-76
2023/03/05 08:24:01;;;;;;;10.35;2.30;;;4.20;1.00;;;;;;6132176;23;20218;-76
2023/03/05 08:26:30;;;;;;;8.80;1.77;;;4.20;1.00;;;;;;6161022;23;21075;-76
2023/03/05 08:28:58;;;;;;;9.57;1.90;;;4.30;1.00;;;;;;6159848;23;20225;-76
2023/03/05 08:31:30;;;;;;;9.40;2.13;;;4.40;1.00;;;;;;6161164;23;20281;-76
2023/03/05 08:33:58;;;;;;;8.50;2.00;;;4.50;1.00;;;;;;6158214;23;20218;-73
2023/03/05 08:36:25;;;;;;;12.63;2.85;;;4.60;1.00;;;;;;6158956;23;20222;-74
2023/03/05 08:38:54;;;;;;;8.25;1.83;;;4.80;1.00;;;;;;6158343;23;20951;-76
2023/03/05 08:41:22;;;;;;;8.55;1.73;;;5.00;1.00;;;;;;6162893;23;20218;-76
2023/03/05 08:43:49;;;;;;;8.55;1.88;;;5.20;1.00;;;;;;6159888;23;21022;-75
2023/03/05 08:46:16;;;;;;;9.43;2.08;;;5.20;1.00;;;;;;6162026;23;20656;-76
2023/03/05 08:48:43;;;;;;;7.03;1.80;;;5.20;1.00;;;;;;6160885;23;20219;-75
2023/03/05 08:51:12;;;;;;;12.35;2.28;;;5.00;1.00;;;;;;6162692;23;20219;-74
2023/03/05 08:53:39;;;;;;;11.18;2.30;;;4.60;1.00;;;;;;6155211;23;20221;-75
2023/03/05 08:56:08;;;;;;;7.47;1.85;;;4.60;1.00;;;;;;6161756;23;20700;-74
2023/03/05 09:13:10;;;;;;;8.90;1.95;;;5.20;1.00;;;;;;6160289;23;20206;-76
2023/03/05 09:15:39;;;;;;;8.00;2.10;;;5.80;1.00;;;;;;6160682;23;20909;-77
2023/03/05 09:18:07;;;;;;;6.60;1.90;;;6.10;1.00;;;;;;6155060;23;20325;-76
2023/03/05 09:20:45;;;;;;;6.82;1.85;;;6.50;1.00;;;;;;6122388;23;20218;-77
2023/03/05 09:23:12;;;;;;;7.85;1.98;;;6.80;1.00;;;;;;6151903;23;20286;-76
2023/03/05 09:25:40;;;;;;;7.28;2.47;;;6.90;1.00;;;;;;6133246;23;21013;-76
2023/03/05 09:28:07;;;;;;;9.30;1.90;;;6.80;1.00;;;;;;6134330;23;20247;-76
2023/03/05 09:30:36;;;;;;;6.22;1.85;;;7.00;1.00;;;;;;6156789;23;20220;-77
2023/03/05 09:33:03;;;;;;;8.65;2.78;;;7.00;1.00;;;;;;6158025;23;20215;-77
2023/03/05 09:35:31;;;;;;;5.70;1.60;;;7.00;1.00;;;;;;6157456;23;20321;-78
2023/03/05 09:37:58;;;;;;;6.90;1.60;;;6.70;1.00;;;;;;6157413;23;20230;-76
2023/03/05 09:40:30;;;;;;;6.25;1.25;;;6.20;1.00;;;;;;6160113;23;20239;-77
2023/03/05 09:43:10;;;;;;;7.35;1.77;;;5.90;1.00;;;;;;6156462;23;20219;-78
2023/03/05 09:45:44;;;;;;;6.13;1.50;;;5.60;1.00;;;;;;6126595;23;20208;-77
2023/03/05 09:48:20;;;;;;;7.00;1.75;;;5.50;1.00;;;;;;6123921;23;20943;-77
2023/03/05 09:50:50;;;;;;;8.52;2.30;;;5.30;1.00;;;;;;6188588;23;20213;-76
2023/03/05 09:53:27;;;;;;;6.95;2.40;;;5.20;1.00;;;;;;6188992;23;20520;-77
2023/03/05 09:55:56;;;;;;;11.02;3.25;;;5.10;1.00;;;;;;6189956;23;20234;-76
2023/03/05 09:58:34;;;;;;;6.45;1.85;;;4.90;1.00;;;;;;6159070;23;20218;-77
2023/03/05 10:01:08;;;;;;;9.68;1.98;;;4.90;1.00;;;;;;6184538;23;20670;-76
2023/03/05 10:03:44;;;;;;;11.45;2.30;;;5.00;1.00;;;;;;6186204;23;20223;-77
2023/03/05 10:06:22;;;;;;;6.47;1.50;;;5.00;1.00;;;;;;6189755;23;20647;-75
2023/03/05 10:08:54;;;;;;;13.10;2.53;;;5.10;1.00;;;;;;6185838;23;20210;-76
2023/03/05 10:11:47;;;;;;;11.98;2.35;;;5.30;1.00;;;;;;6187009;23;20234;-77
2023/03/05 10:14:20;;;;;;;9.68;2.53;;;5.40;1.00;;;;;;6182405;23;20696;-77
2023/03/05 10:17:20;;;;;;;5.75;1.60;;;5.50;1.00;;;;;;6186283;23;20226;-76
2023/03/05 10:20:09;;;;;;;7.72;1.90;;;5.40;1.00;;;;;;6158342;23;20709;-77
2023/03/05 10:22:58;;;;;;;9.93;2.20;;;5.40;1.00;;;;;;6163476;23;20226;-77
2023/03/05 10:25:39;;;;;;;6.93;1.60;;;5.50;1.00;;;;;;6185560;23;20272;-74
2023/03/05 10:28:16;;;;;;;6.18;1.92;;;5.50;1.00;;;;;;6185744;23;20257;-77
2023/03/05 10:30:58;;;;;;;9.57;2.13;;;5.40;1.00;;;;;;6186907;23;20213;-76
2023/03/05 10:33:35;;;;;;;7.97;2.35;;;5.40;1.00;;;;;;6185372;23;20301;-76
2023/03/05 10:36:23;;;;;;;6.53;1.73;;;5.40;1.00;;;;;;6189433;23;20220;-76
2023/03/05 10:39:18;;;;;;;8.63;2.63;;;5.40;1.00;;;;;;6187396;23;20218;-76
2023/03/05 10:41:54;;;;;;;6.07;1.88;;;5.30;1.00;;;;;;6156283;23;20222;-75
2023/03/05 10:44:32;;;;;;;6.53;1.92;;;5.20;1.00;;;;;;6185573;23;20300;-76
2023/03/05 10:47:01;;;;;;;8.98;2.22;;;5.00;1.00;;;;;;6187220;23;20218;-78
2023/03/05 10:49:52;;;;;;;8.10;2.50;;;5.00;1.00;;;;;;6190195;23;20292;-77
2023/03/05 10:52:23;;;;;;;12.05;2.30;;;4.80;1.00;;;;;;6189698;23;20234;-76
2023/03/05 10:54:50;;;;;;;7.47;1.75;;;4.80;1.00;;;;;;6189430;23;20214;-78
2023/03/05 10:57:19;;;;;;;9.85;2.67;;;4.80;1.00;;;;;;6191503;23;20214;-77
2023/03/05 10:59:50;;;;;;;8.30;1.73;;;4.90;1.00;;;;;;6191607;23;20217;-76
2023/03/05 11:02:18;;;;;;;9.35;2.50;;;5.00;1.00;;;;;;6190405;23;20238;-78
2023/03/05 11:04:46;;;;;;;7.97;1.80;;;5.00;1.00;;;;;;6186879;23;20269;-78
2023/03/05 11:07:36;;;;;;;7.13;1.55;;;5.00;1.00;;;;;;6187267;23;20238;-76
2023/03/05 11:10:15;;;;;;;12.65;4.05;;;4.90;1.00;;;;;;6189537;23;20302;-78
2023/03/05 11:12:43;;;;;;;7.85;2.50;;;5.00;1.00;;;;;;6183831;23;20210;-77
2023/03/05 11:15:28;;;;;;;8.18;2.90;;;5.00;1.00;;;;;;6181960;23;20214;-76
2023/03/05 11:18:17;;;;;;;11.10;2.58;;;4.90;1.00;;;;;;6184987;23;20582;-76
2023/03/05 11:20:44;;;;;;;7.93;2.95;;;5.00;1.00;;;;;;6178735;23;20218;-75
2023/03/05 11:23:14;;;;;;;10.60;2.42;;;5.10;1.00;;;;;;6155392;23;20234;-76
2023/03/05 11:26:04;;;;;;;7.38;2.00;;;5.10;1.00;;;;;;6191209;23;21030;-75
2023/03/05 11:28:34;;;;;;;8.00;2.08;;;5.10;1.00;;;;;;6187118;23;20238;-77
2023/03/05 11:31:10;;;;;;;9.15;2.75;;;5.10;1.00;;;;;;6187593;23;20218;-75
2023/03/05 11:33:38;;;;;;;9.50;2.17;;;5.30;1.00;;;;;;6192323;23;20288;-76
2023/03/05 11:36:23;;;;;;;9.88;2.83;;;5.40;1.00;;;;;;6154506;23;20219;-77
2023/03/05 11:38:56;;;;;;;6.78;1.70;;;5.40;1.00;;;;;;6192537;23;20296;-79
2023/03/05 11:41:34;;;;;;;9.68;2.50;;;5.40;1.00;;;;;;6196344;23;20240;-77
2023/03/05 11:44:09;;;;;;;9.48;2.58;;;5.50;1.00;;;;;;6194314;23;20284;-75
2023/03/05 11:46:41;;;;;;;7.47;2.20;;;5.60;1.00;;;;;;6190254;23;20398;-77
2023/03/05 11:49:13;;;;;;;10.15;2.53;;;5.60;1.00;;;;;;6190109;23;20285;-77
2023/03/05 11:51:44;;;;;;;10.35;2.33;;;5.70;1.00;;;;;;6193325;23;20198;-76
2023/03/05 11:54:20;;;;;;;9.60;2.60;;;6.00;1.00;;;;;;6194460;23;20938;-76
2023/03/05 11:56:48;;;;;;;9.73;2.55;;;6.20;1.00;;;;;;6191206;23;20952;-77
2023/03/05 11:59:18;;;;;;;7.88;2.70;;;6.10;1.00;;;;;;6192202;23;20237;-78
2023/03/05 12:01:48;;;;;;;6.85;2.35;;;6.00;1.00;;;;;;6190403;23;20214;-75
2023/03/05 12:04:16;;;;;;;7.25;2.95;;;6.40;1.00;;;;;;6192919;23;20227;-77
2023/03/05 12:06:46;;;;;;;11.73;3.50;;;6.80;1.00;;;;;;6195028;23;20301;-76
2023/03/05 12:09:25;;;;;;;10.25;2.90;;;6.90;1.00;;;;;;6193849;23;20207;-77
2023/03/05 12:12:00;;;;;;;10.88;2.90;;;6.90;1.00;;;;;;6194638;23;20332;-74
2023/03/05 12:14:36;;;;;;;6.63;2.30;;;6.80;1.00;;;;;;6172934;23;20218;-76
2023/03/05 12:17:14;;;;;;;8.85;3.15;;;6.70;1.00;;;;;;6171036;23;20265;-76
2023/03/05 12:19:52;;;;;;;8.43;2.97;;;6.40;1.00;;;;;;6191495;23;20215;-76
2023/03/05 12:22:21;;;;;;;7.70;2.90;;;6.30;1.00;;;;;;6192146;23;21012;-78
2023/03/05 12:24:52;;;;;;;8.25;3.13;;;6.80;1.00;;;;;;6193802;23;21010;-76
2023/03/05 12:27:34;;;;;;;7.55;2.65;;;7.40;1.00;;;;;;6191895;23;20215;-76
2023/03/05 12:30:02;;;;;;;6.55;2.20;;;7.50;1.00;;;;;;6195412;23;20216;-76
2023/03/05 12:33:01;;;;;;;8.10;3.00;;;7.60;1.00;;;;;;6190325;23;20215;-77
2023/03/05 12:35:36;;;;;;;7.88;2.80;;;7.60;1.00;;;;;;6149409;23;20272;-78
2023/03/05 12:38:35;;;;;;;12.00;3.60;;;7.40;1.00;;;;;;6168107;23;20303;-76
2023/03/05 12:41:35;;;;;;;9.00;2.67;;;7.40;1.00;;;;;;6178266;23;20247;-77
2023/03/05 12:44:32;;;;;;;14.25;3.00;;;8.10;1.00;;;;;;6192583;23;20949;-76
2023/03/05 12:47:22;;;;;;;8.65;2.85;;;9.10;1.00;;;;;;6194813;23;20212;-76
2023/03/05 12:49:56;;;;;;;7.82;2.10;;;8.80;1.00;;;;;;6170262;23;20667;-76
2023/03/05 12:52:27;;;;;;;5.18;1.55;;;8.30;1.00;;;;;;6159489;23;20206;-77
2023/03/05 12:55:19;;;;;;;6.28;2.22;;;7.70;1.00;;;;;;6171792;23;20301;-77
2023/03/05 12:57:52;;;;;;;5.65;2.30;;;7.10;1.00;;;;;;6195375;23;20498;-77
2023/03/05 13:00:25;;;;;;;6.07;1.90;;;6.70;1.00;;;;;;6164389;23;20219;-77
2023/03/05 13:02:57;;;;;;;5.55;1.55;;;6.50;1.00;;;;;;6182760;23;20224;-77
2023/03/05 13:05:28;;;;;;;7.95;2.28;;;6.40;1.00;;;;;;6195675;23;20214;-78
2023/03/05 13:08:10;;;;;;;5.85;1.77;;;6.60;1.00;;;;;;6196682;23;20218;-78
2023/03/05 13:10:50;;;;;;;6.25;3.13;;;6.80;1.00;;;;;;6194879;23;20292;-78
2023/03/05 13:13:27;;;;;;;5.75;2.35;;;6.90;1.00;;;;;;6193066;23;20209;-77
2023/03/05 13:15:55;;;;;;;7.28;2.00;;;6.90;1.00;;;;;;6170265;23;20218;-79
2023/03/05 13:18:24;;;;;;;6.97;2.38;;;6.90;1.00;;;;;;6194217;23;20222;-78
2023/03/05 13:21:03;;;;;;;4.80;1.90;;;6.80;1.00;;;;;;6192480;23;20218;-77
2023/03/05 13:23:31;;;;;;;6.78;2.17;;;6.80;1.00;;;;;;6189713;23;20947;-78
2023/03/05 13:26:04;;;;;;;5.50;1.98;;;6.90;1.00;;;;;;6167812;23;20216;-77
2023/03/05 13:28:40;;;;;;;8.35;1.60;;;7.00;1.00;;;;;;6192395;23;20258;-79
2023/03/05 13:31:16;;;;;;;6.68;2.53;;;7.20;1.00;;;;;;6194359;23;20218;-77
2023/03/05 13:33:53;;;;;;;7.93;2.90;;;7.30;1.00;;;;;;6196096;23;20691;-77